Time;durP1;ratioP1;P1;durP2;ratioP2;P2;SDS_P1;SDS_P2;PMS_P1;PMS_P2;Temp;Humidity;BMP_temperature;BMP_pressure;BME280_temperature;BME280_humidity;BME280_pressure;Samples;Min_cycle;Max_cycle;Signal;HPM_P1;HPM_P2
2022/09/25 00:02:09;;;;;;;15.20;9.30;;;;;;;5.30;96.68;101356.10;106861;1252;61422;-71
2022/09/25 00:04:38;;;;;;;13.90;8.30;;;;;;;5.30;96.88;101356.80;106931;1254;75422;-71
2022/09/25 00:07:07;;;;;;;11.00;7.90;;;;;;;5.26;96.43;101356.95;106944;1254;70671;-71
2022/09/25 00:09:36;;;;;;;12.10;7.70;;;;;;;5.21;96.36;101355.41;106997;1254;67956;-71
2022/09/25 00:12:05;;;;;;;13.10;8.00;;;;;;;5.15;95.89;101354.63;106974;1252;73559;-71
2022/09/25 00:14:33;;;;;;;12.30;8.00;;;;;;;5.11;96.27;101357.89;106956;1253;63610;-72
2022/09/25 00:17:02;;;;;;;11.50;7.90;;;;;;;5.08;96.20;101356.65;106935;1254;59850;-72
2022/09/25 00:19:49;;;;;;;11.20;7.20;;;;;;;5.05;96.42;101350.70;106928;1254;72885;-71
2022/09/25 00:22:26;;;;;;;9.10;7.40;;;;;;;5.03;96.13;101348.52;106864;1252;70854;-71
2022/09/25 00:24:56;;;;;;;11.30;7.80;;;;;;;5.05;96.39;101349.48;106907;1254;68132;-71
2022/09/25 00:27:25;;;;;;;11.00;7.90;;;;;;;5.05;96.36;101351.39;106998;1253;72017;-73
2022/09/25 00:29:54;;;;;;;14.50;8.80;;;;;;;5.01;96.00;101346.02;107040;1253;60881;-73
2022/09/25 00:32:24;;;;;;;10.30;7.60;;;;;;;5.02;96.60;101342.19;107073;1254;61773;-73
2022/09/25 00:34:52;;;;;;;12.20;7.90;;;;;;;5.03;96.33;101336.79;107009;1253;72366;-74
2022/09/25 00:37:21;;;;;;;12.70;7.80;;;;;;;5.00;95.51;101340.88;107034;1253;70107;-75
2022/09/25 00:39:50;;;;;;;11.40;7.60;;;;;;;4.95;94.79;101339.36;107177;1253;69082;-73
2022/09/25 00:42:21;;;;;;;10.30;8.10;;;;;;;4.89;94.55;101339.40;107024;1251;71438;-72
2022/09/25 00:45:25;;;;;;;12.40;8.60;;;;;;;4.84;94.41;101329.27;106990;1253;59609;-73
2022/09/25 00:48:06;;;;;;;15.40;8.50;;;;;;;4.78;94.56;101335.34;106442;1260;60072;-73
2022/09/25 00:50:58;;;;;;;12.90;8.80;;;;;;;4.79;96.60;101335.84;107011;1254;74557;-71
2022/09/25 00:53:32;;;;;;;11.80;7.60;;;;;;;4.78;94.77;101335.00;107072;1253;72903;-72
2022/09/25 00:56:02;;;;;;;13.10;7.60;;;;;;;4.78;96.73;101332.59;107067;1253;70442;-74
2022/09/25 00:58:35;;;;;;;13.50;8.20;;;;;;;4.80;97.85;101334.41;107037;1252;73033;-71
2022/09/25 01:01:06;;;;;;;10.70;7.30;;;;;;;4.82;98.28;101338.45;107117;1252;63124;-71
2022/09/25 01:03:35;;;;;;;12.80;7.60;;;;;;;4.82;97.76;101334.84;107130;1252;62307;-73
2022/09/25 01:06:05;;;;;;;9.40;7.20;;;;;;;4.80;97.29;101336.14;109068;1251;72833;-71
2022/09/25 01:08:34;;;;;;;11.60;7.30;;;;;;;4.80;97.45;101341.13;107030;1252;72671;-70
2022/09/25 01:11:03;;;;;;;10.10;6.90;;;;;;;4.77;96.88;101341.23;107036;1252;70436;-71
2022/09/25 01:13:32;;;;;;;13.00;7.70;;;;;;;4.74;96.99;101343.75;106973;1251;75030;-72
2022/09/25 01:16:10;;;;;;;12.30;8.00;;;;;;;4.72;96.70;101346.44;107194;1252;59951;-70
2022/09/25 01:19:02;;;;;;;11.90;7.60;;;;;;;4.67;96.88;101345.77;107070;1253;60069;-71
2022/09/25 01:21:53;;;;;;;13.00;8.30;;;;;;;4.64;97.71;101342.41;107109;1253;74570;-72
2022/09/25 01:24:34;;;;;;;11.20;6.40;;;;;;;4.61;97.57;101334.63;106971;1253;69612;-72
2022/09/25 01:27:18;;;;;;;11.50;6.80;;;;;;;4.58;97.37;101336.09;107156;1252;68684;-70
2022/09/25 01:30:05;;;;;;;11.50;7.20;;;;;;;4.61;97.36;101335.29;107152;1252;72011;-70
2022/09/25 01:33:08;;;;;;;10.20;7.60;;;;;;;4.60;97.25;101338.09;107127;1252;59774;-71
2022/09/25 01:35:57;;;;;;;13.10;8.80;;;;;;;4.53;97.09;101333.85;107163;1254;60153;-71
2022/09/25 01:39:15;;;;;;;9.20;6.70;;;;;;;4.47;96.99;101339.42;107139;1252;74502;-71
2022/09/25 01:41:53;;;;;;;10.00;7.00;;;;;;;4.41;96.93;101340.52;107022;1253;72669;-71
2022/09/25 01:44:35;;;;;;;14.30;7.00;;;;;;;4.38;97.34;101338.92;107209;1252;70676;-71
2022/09/25 01:47:14;;;;;;;11.40;7.50;;;;;;;4.33;97.23;101338.91;107204;1252;74436;-70
2022/09/25 01:49:55;;;;;;;12.00;7.10;;;;;;;4.31;97.60;101345.58;107210;1253;62679;-70
2022/09/25 01:52:32;;;;;;;10.70;7.20;;;;;;;4.29;97.61;101344.95;106992;1253;61332;-73
2022/09/25 01:55:15;;;;;;;10.10;7.50;;;;;;;4.26;97.48;101351.77;107024;1252;75025;-71
2022/09/25 01:57:52;;;;;;;11.80;8.20;;;;;;;4.22;97.86;101346.73;107045;1252;70999;-70
2022/09/25 02:00:24;;;;;;;12.80;7.90;;;;;;;4.20;97.90;101343.71;106967;1253;68453;-71
2022/09/25 02:03:21;;;;;;;10.10;7.50;;;;;;;4.16;97.99;101342.09;107042;1252;72057;-71
2022/09/25 02:05:56;;;;;;;13.20;8.10;;;;;;;4.16;98.41;101346.95;107037;1253;62527;-71
2022/09/25 02:08:45;;;;;;;12.20;7.70;;;;;;;4.16;98.75;101344.88;107041;1253;59345;-70
2022/09/25 02:11:14;;;;;;;14.00;8.90;;;;;;;4.15;98.86;101344.58;107005;1253;74179;-70
2022/09/25 02:13:57;;;;;;;13.10;8.20;;;;;;;4.15;98.84;101346.48;106969;1254;72088;-74
2022/09/25 02:16:49;;;;;;;11.60;7.10;;;;;;;4.11;98.11;101346.63;106825;1254;70049;-72
2022/09/25 02:22:34;;;;;;;11.40;7.80;;;;;;;4.03;97.92;101341.55;106836;1254;61763;-73
2022/09/25 02:25:14;;;;;;;12.40;8.10;;;;;;;4.00;98.22;101335.29;107011;1252;62228;-77
2022/09/25 02:27:42;;;;;;;11.50;7.70;;;;;;;3.98;98.33;101334.98;106946;1253;75174;-73
2022/09/25 02:30:11;;;;;;;12.50;8.20;;;;;;;3.94;98.41;101338.40;106889;1252;70397;-73
2022/09/25 02:32:40;;;;;;;17.80;9.80;;;;;;;3.94;98.69;101333.09;106873;1252;70807;-72
2022/09/25 02:35:09;;;;;;;13.20;8.60;;;;;;;3.92;98.75;101334.69;106669;1254;73173;-73
2022/09/25 02:37:38;;;;;;;17.10;7.90;;;;;;;3.89;98.88;101333.77;106811;1251;59683;-74
2022/09/25 02:40:10;;;;;;;12.20;7.20;;;;;;;3.87;98.54;101336.23;106984;1252;60644;-72
2022/09/25 02:42:44;;;;;;;14.30;7.90;;;;;;;3.90;99.09;101340.63;106939;1252;72440;-73
2022/09/25 02:45:35;;;;;;;13.90;7.50;;;;;;;3.88;98.86;101333.96;106970;1252;69691;-74
2022/09/25 02:48:40;;;;;;;11.10;7.70;;;;;;;3.88;99.14;101326.39;107042;1252;69277;-75
2022/09/25 02:51:34;;;;;;;11.90;7.20;;;;;;;3.86;98.63;101324.71;106952;1252;73170;-73
2022/09/25 02:54:20;;;;;;;10.60;7.20;;;;;;;3.86;98.39;101325.92;106892;1252;63394;-74
2022/09/25 02:57:10;;;;;;;10.10;7.10;;;;;;;3.82;97.91;101322.98;106877;1252;60905;-76
2022/09/25 02:59:48;;;;;;;11.30;7.10;;;;;;;3.79;98.17;101324.45;106877;1251;73766;-70
2022/09/25 03:02:19;;;;;;;10.90;7.20;;;;;;;3.75;98.05;101323.92;106768;1254;71967;-72
2022/09/25 03:04:50;;;;;;;13.30;7.80;;;;;;;3.73;98.06;101321.20;106626;1253;70517;-74
2022/09/25 03:07:19;;;;;;;9.60;7.30;;;;;;;3.72;98.07;101317.13;106724;1255;75385;-72
2022/09/25 03:09:52;;;;;;;10.10;7.80;;;;;;;3.73;98.19;101319.48;106850;1254;60353;-76
2022/09/25 03:12:21;;;;;;;;;;;;;;;3.74;98.56;101321.55;106699;1255;59005;-71
2022/09/25 03:14:50;;;;;;;12.40;7.20;;;;;;;3.70;98.40;101314.59;106852;1254;73293;-72
2022/09/25 03:17:22;;;;;;;11.20;7.00;;;;;;;3.68;98.29;101311.39;106855;1253;72391;-73
2022/09/25 03:19:50;;;;;;;10.00;7.10;;;;;;;3.66;98.37;101306.30;106936;1254;70492;-74
2022/09/25 03:22:20;;;;;;;11.30;7.40;;;;;;;3.63;98.39;101304.83;106981;1254;73832;-73
2022/09/25 03:24:49;;;;;;;10.40;7.10;;;;;;;3.60;98.46;101305.98;107047;1252;62728;-73
2022/09/25 03:27:20;;;;;;;11.90;8.20;;;;;;;3.58;98.66;101309.66;106902;1254;59727;-72
2022/09/25 03:29:49;;;;;;;10.80;7.30;;;;;;;3.56;98.55;101311.96;106898;1254;73318;-73
2022/09/25 03:32:18;;;;;;;10.90;7.80;;;;;;;3.56;98.69;101310.74;106883;1253;73557;-73
2022/09/25 03:34:47;;;;;;;11.90;8.20;;;;;;;3.61;99.30;101305.94;106895;1252;71099;-74
2022/09/25 03:37:16;;;;;;;11.70;8.40;;;;;;;3.64;99.21;101311.02;107710;1252;74666;-73
2022/09/25 03:39:45;;;;;;;12.10;8.50;;;;;;;3.63;98.95;101314.84;107214;1252;62017;-74
2022/09/25 03:42:13;;;;;;;14.10;8.70;;;;;;;3.63;98.90;101313.29;106961;1252;60911;-73
2022/09/25 03:44:43;;;;;;;10.30;7.30;;;;;;;3.61;99.24;101319.55;106893;1252;72102;-78
2022/09/25 03:47:12;;;;;;;10.80;7.40;;;;;;;3.62;99.02;101318.99;106941;1252;71935;-71
2022/09/25 03:49:41;;;;;;;18.10;10.20;;;;;;;3.65;98.95;101321.32;106978;1252;70297;-77
2022/09/25 03:52:13;;;;;;;10.60;7.60;;;;;;;3.68;98.74;101318.11;106935;1252;73853;-76
2022/09/25 03:54:42;;;;;;;11.60;7.80;;;;;;;3.69;98.42;101318.95;106984;1252;61435;-74
2022/09/25 03:57:11;;;;;;;11.40;7.30;;;;;;;3.67;97.74;101316.77;106931;1252;59398;-71
2022/09/25 03:59:40;;;;;;;11.40;7.10;;;;;;;3.66;98.18;101313.86;107028;1251;72888;-75
2022/09/25 04:02:09;;;;;;;14.70;9.30;;;;;;;3.65;98.25;101312.70;107027;1252;72367;-73
2022/09/25 04:04:38;;;;;;;10.30;7.80;;;;;;;3.63;98.22;101312.93;107107;1252;69545;-77
2022/09/25 04:07:07;;;;;;;13.20;8.40;;;;;;;3.61;98.22;101311.27;106904;1253;74001;-77
2022/09/25 04:09:36;;;;;;;10.60;7.70;;;;;;;3.62;98.93;101313.30;106960;1252;61032;-73
2022/09/25 04:12:06;;;;;;;10.90;7.30;;;;;;;3.63;98.58;101315.86;107027;1252;59018;-75
2022/09/25 04:14:35;;;;;;;14.60;8.70;;;;;;;3.64;98.58;101317.21;107039;1252;73661;-73
2022/09/25 04:17:04;;;;;;;11.00;8.10;;;;;;;3.67;98.72;101313.13;107004;1252;69754;-75
2022/09/25 04:19:33;;;;;;;10.90;8.30;;;;;;;3.74;98.72;101310.34;107030;1254;68814;-76
2022/09/25 04:22:02;;;;;;;16.90;8.80;;;;;;;3.78;98.39;101309.50;107022;1252;74388;-73
2022/09/25 04:24:48;;;;;;;12.60;8.40;;;;;;;3.82;98.12;101302.45;106953;1252;60782;-75
2022/09/25 04:27:21;;;;;;;12.50;7.70;;;;;;;3.88;97.97;101307.27;107007;1252;59736;-75
2022/09/25 04:29:50;;;;;;;12.80;7.80;;;;;;;3.91;98.00;101311.79;106971;1253;72597;-76
2022/09/25 04:35:07;;;;;;;14.00;7.10;;;;;;;4.15;98.09;101307.16;106968;1252;69409;-76
2022/09/25 04:37:35;;;;;;;11.80;7.90;;;;;;;4.22;97.16;101309.84;106957;1252;73955;-75
2022/09/25 04:40:05;;;;;;;10.50;7.10;;;;;;;4.27;96.90;101302.41;106845;1253;62246;-76
2022/09/25 04:42:34;;;;;;;13.60;7.60;;;;;;;4.37;96.83;101301.01;106688;1254;59753;-75
2022/09/25 04:45:04;;;;;;;14.00;7.80;;;;;;;4.49;96.83;101307.97;106972;1252;73173;-74
2022/09/25 04:47:32;;;;;;;14.00;8.20;;;;;;;4.62;96.60;101308.88;106943;1252;72148;-74
2022/09/25 04:50:01;;;;;;;16.30;8.20;;;;;;;4.72;96.72;101313.16;106952;1252;69535;-74
2022/09/25 04:52:30;;;;;;;12.80;8.30;;;;;;;4.82;96.73;101317.61;106954;1252;72736;-74
2022/09/25 04:55:00;;;;;;;12.00;8.80;;;;;;;4.90;96.75;101320.20;107011;1252;59623;-76
2022/09/25 04:57:28;;;;;;;19.20;10.10;;;;;;;4.96;96.55;101320.50;106889;1253;60525;-74
2022/09/25 05:00:18;;;;;;;33.90;19.10;;;;;;;5.02;96.37;101322.48;106918;1254;75402;-75
2022/09/25 05:02:48;;;;;;;17.00;8.70;;;;;;;5.07;96.34;101321.63;107074;1252;69874;-76
2022/09/25 05:05:18;;;;;;;22.00;10.10;;;;;;;5.17;96.08;101319.47;107012;1254;68380;-74
2022/09/25 05:07:55;;;;;;;12.60;9.40;;;;;;;5.22;95.75;101318.58;107175;1252;73921;-75
2022/09/25 05:10:30;;;;;;;13.20;9.20;;;;;;;5.26;95.66;101321.02;107020;1252;63602;-72
2022/09/25 05:13:04;;;;;;;16.70;9.80;;;;;;;5.31;95.76;101322.52;107021;1251;60155;-75
2022/09/25 05:15:33;;;;;;;;;;;;;;;5.38;95.69;101325.40;106879;1254;71710;-74
2022/09/25 05:18:17;;;;;;;17.50;10.70;;;;;;;5.43;95.78;101320.85;106860;1252;72339;-77
2022/09/25 05:20:47;;;;;;;21.00;10.60;;;;;;;5.51;95.77;101311.70;107051;1253;68584;-73
2022/09/25 05:23:16;;;;;;;16.00;10.20;;;;;;;5.63;95.18;101313.63;106980;1254;71243;-75
2022/09/25 05:26:00;;;;;;;14.70;10.00;;;;;;;5.72;94.78;101309.44;107055;1252;59555;-74
2022/09/25 05:28:32;;;;;;;17.70;9.70;;;;;;;5.82;94.57;101312.46;107026;1252;60116;-75
2022/09/25 05:31:02;;;;;;;42.90;37.40;;;;;;;5.93;94.34;101318.59;107022;1253;74496;-75
2022/09/25 05:33:34;;;;;;;23.80;17.80;;;;;;;6.05;93.99;101314.08;107145;1252;72121;-74
2022/09/25 05:36:06;;;;;;;22.70;12.20;;;;;;;6.19;93.75;101317.47;108064;1252;71183;-74
2022/09/25 05:38:38;;;;;;;21.70;16.10;;;;;;;6.33;92.86;101318.17;107629;1252;74764;-76
2022/09/25 05:41:09;;;;;;;33.40;20.60;;;;;;;6.48;92.18;101318.75;107063;1252;59849;-75
2022/09/25 05:43:42;;;;;;;20.60;14.30;;;;;;;6.61;91.70;101318.64;106996;1252;60619;-75
2022/09/25 05:46:10;;;;;;;21.70;14.40;;;;;;;6.77;92.05;101318.77;106827;1254;71778;-76
2022/09/25 05:48:39;;;;;;;20.70;13.50;;;;;;;6.94;90.46;101312.59;106828;1254;71885;-76
2022/09/25 05:51:09;;;;;;;18.60;13.20;;;;;;;7.11;89.63;101311.11;106816;1254;69355;-74
2022/09/25 05:53:38;;;;;;;21.70;13.70;;;;;;;7.29;88.93;101312.68;106943;1252;73147;-78
2022/09/25 05:56:06;;;;;;;23.70;14.10;;;;;;;7.42;88.87;101305.42;106957;1252;60369;-74
2022/09/25 05:58:35;;;;;;;19.20;14.20;;;;;;;7.56;89.67;101307.66;107042;1252;59583;-73
2022/09/25 06:01:05;;;;;;;24.10;16.50;;;;;;;7.66;86.62;101310.12;107167;1252;72005;-76
2022/09/25 06:03:34;;;;;;;29.40;19.20;;;;;;;7.79;86.44;101310.35;106877;1253;71111;-76
2022/09/25 06:06:05;;;;;;;28.40;15.30;;;;;;;7.95;86.03;101304.95;107073;1252;68050;-77
2022/09/25 06:08:37;;;;;;;24.60;15.50;;;;;;;8.09;83.99;101305.98;107002;1252;73125;-78
2022/09/25 06:11:07;;;;;;;40.30;33.50;;;;;;;8.26;85.49;101307.84;106985;1253;60957;-75
2022/09/25 06:13:36;;;;;;;40.20;28.50;;;;;;;8.44;85.34;101312.83;106952;1252;60976;-74
2022/09/25 06:16:13;;;;;;;45.90;36.30;;;;;;;8.60;85.02;101319.45;106936;1252;71294;-76
2022/09/25 06:18:43;;;;;;;25.30;17.90;;;;;;;8.70;81.44;101321.11;106872;1254;72322;-77
2022/09/25 06:21:13;;;;;;;27.40;17.90;;;;;;;8.80;80.62;101323.93;107004;1252;70419;-76
2022/09/25 06:23:44;;;;;;;21.10;16.60;;;;;;;8.84;79.91;101326.62;106884;1253;74408;-75
2022/09/25 06:26:13;;;;;;;22.80;18.30;;;;;;;8.92;79.21;101318.91;106847;1252;62336;-74
2022/09/25 06:28:42;;;;;;;27.60;20.10;;;;;;;9.05;78.83;101319.37;106838;1252;60352;-74
2022/09/25 06:31:10;;;;;;;25.00;18.60;;;;;;;9.13;77.92;101319.92;107024;1252;75047;-74
2022/09/25 06:33:40;;;;;;;28.20;19.20;;;;;;;9.34;79.83;101323.14;107061;1252;72775;-75
2022/09/25 06:36:09;;;;;;;24.30;18.90;;;;;;;9.45;76.92;101324.75;107081;1254;68655;-75
2022/09/25 06:38:38;;;;;;;23.30;17.20;;;;;;;9.55;75.87;101325.03;107121;1252;72745;-73
2022/09/25 06:41:07;;;;;;;23.90;16.10;;;;;;;9.72;77.40;101326.30;107079;1252;61982;-73
2022/09/25 06:43:35;;;;;;;20.40;16.00;;;;;;;9.79;76.03;101323.42;107095;1252;61307;-73
2022/09/25 06:46:04;;;;;;;18.60;15.80;;;;;;;9.85;74.61;101319.10;107105;1252;73176;-75
2022/09/25 06:48:34;;;;;;;18.10;15.10;;;;;;;9.95;73.99;101314.11;107126;1253;70428;-76
2022/09/25 06:51:03;;;;;;;21.70;15.50;;;;;;;10.06;73.62;101317.98;107041;1252;70258;-75
2022/09/25 06:53:31;;;;;;;23.50;15.10;;;;;;;10.22;73.11;101315.48;107147;1252;72666;-74
2022/09/25 06:56:00;;;;;;;19.00;14.70;;;;;;;10.33;72.85;101316.91;107101;1252;59620;-74
2022/09/25 06:58:29;;;;;;;22.10;14.20;;;;;;;10.43;72.32;101305.47;107112;1252;60094;-74
2022/09/25 07:00:59;;;;;;;18.50;13.30;;;;;;;10.57;71.22;101310.90;107064;1252;74770;-75
2022/09/25 07:03:46;;;;;;;17.20;11.50;;;;;;;10.76;71.89;101308.62;107043;1252;70644;-74
2022/09/25 07:06:25;;;;;;;16.80;11.10;;;;;;;11.00;72.52;101304.33;107087;1252;70720;-76
2022/09/25 07:08:55;;;;;;;19.10;11.80;;;;;;;11.17;70.70;101309.09;107142;1252;74084;-78
2022/09/25 07:11:27;;;;;;;14.10;9.80;;;;;;;11.28;68.27;101309.99;107049;1252;59662;-76
2022/09/25 07:13:56;;;;;;;13.20;9.80;;;;;;;11.37;66.86;101306.73;107083;1252;60753;-76
2022/09/25 07:16:28;;;;;;;15.50;10.80;;;;;;;11.57;67.54;101307.83;106861;1252;74242;-75
2022/09/25 07:18:59;;;;;;;13.60;9.30;;;;;;;11.71;66.36;101308.48;107050;1254;70949;-73
2022/09/25 07:21:30;;;;;;;13.00;8.80;;;;;;;11.91;67.42;101305.88;106895;1254;66967;-78
2022/09/25 07:24:02;;;;;;;15.40;9.50;;;;;;;11.93;64.52;101302.66;106866;1252;73886;-75
2022/09/25 07:26:33;;;;;;;12.70;8.10;;;;;;;12.03;63.32;101302.67;107039;1253;62048;-78
2022/09/25 07:29:07;;;;;;;9.80;7.80;;;;;;;12.23;64.31;101298.83;107111;1252;60906;-75
2022/09/25 07:31:38;;;;;;;11.80;9.40;;;;;;;12.31;63.12;101297.89;106974;1254;72579;-72
2022/09/25 07:34:07;;;;;;;12.60;9.60;;;;;;;12.49;63.51;101296.09;106885;1252;72354;-77
2022/09/25 07:36:41;;;;;;;14.90;10.40;;;;;;;12.53;62.74;101293.75;106799;1254;68643;-76
2022/09/25 07:39:10;;;;;;;14.70;9.90;;;;;;;12.64;65.23;101271.11;106873;1254;73679;-74
2022/09/25 07:41:46;;;;;;;14.00;9.90;;;;;;;12.77;62.10;101290.80;106797;1252;60560;-74
2022/09/25 07:44:14;;;;;;;14.10;10.40;;;;;;;12.83;62.05;101289.67;106915;1252;60223;-76
2022/09/25 07:47:04;;;;;;;13.40;9.80;;;;;;;13.03;63.36;101293.42;106943;1252;75555;-76
2022/09/25 07:49:33;;;;;;;15.90;9.90;;;;;;;13.18;63.19;101295.47;106866;1252;72721;-72
2022/09/25 07:52:05;;;;;;;15.30;10.30;;;;;;;13.28;62.13;101300.59;106897;1252;70118;-79
2022/09/25 07:54:35;;;;;;;15.80;10.60;;;;;;;13.27;61.62;101301.64;106911;1252;73735;-77
2022/09/25 07:57:04;;;;;;;17.80;10.10;;;;;;;13.42;61.56;101300.40;106905;1252;60203;-80
2022/09/25 07:59:33;;;;;;;17.10;10.50;;;;;;;13.56;62.59;101298.23;106911;1252;60537;-76
2022/09/25 08:02:02;;;;;;;16.80;10.80;;;;;;;13.65;61.05;101294.80;107066;1252;74253;-77
2022/09/25 08:04:31;;;;;;;15.20;10.20;;;;;;;13.74;60.06;101286.92;107087;1252;71194;-76
2022/09/25 08:07:00;;;;;;;16.70;9.90;;;;;;;13.91;59.58;101287.00;107107;1252;70617;-76
2022/09/25 08:09:29;;;;;;;14.00;9.40;;;;;;;14.06;61.13;101287.79;106939;1252;74342;-76
2022/09/25 08:11:57;;;;;;;13.70;9.60;;;;;;;14.15;59.68;101285.66;106994;1252;62156;-79
2022/09/25 08:14:26;;;;;;;16.30;9.70;;;;;;;14.27;60.22;101286.11;106757;1253;60317;-77
2022/09/25 08:16:55;;;;;;;12.40;8.60;;;;;;;14.32;58.68;101282.08;106820;1252;74503;-75
2022/09/25 08:19:24;;;;;;;12.70;8.70;;;;;;;14.40;58.56;101280.55;106838;1252;72530;-77
2022/09/25 08:21:52;;;;;;;11.50;8.60;;;;;;;14.36;59.26;101278.75;106794;1251;70475;-76
2022/09/25 08:24:21;;;;;;;10.50;7.90;;;;;;;14.55;59.88;101276.05;106796;1252;72139;-76
2022/09/25 08:26:50;;;;;;;10.90;8.30;;;;;;;14.66;58.88;101272.72;106867;1252;59816;-78
2022/09/25 08:29:19;;;;;;;10.40;8.00;;;;;;;14.68;57.74;101271.71;107040;1252;60566;-78
2022/09/25 08:31:48;;;;;;;11.70;7.20;;;;;;;14.75;56.50;101270.21;106833;1252;72854;-77
2022/09/25 08:34:16;;;;;;;12.60;8.10;;;;;;;14.78;55.92;101267.88;106934;1254;70149;-75
2022/09/25 08:37:07;;;;;;;8.40;6.80;;;;;;;14.92;56.96;101268.69;106903;1252;68900;-81
2022/09/25 08:39:36;;;;;;;9.90;7.00;;;;;;;14.97;56.34;101265.45;106991;1253;73972;-78
2022/09/25 08:42:05;;;;;;;12.40;7.50;;;;;;;15.15;57.43;101261.33;106837;1253;61919;-77
2022/09/25 08:44:47;;;;;;;11.40;7.00;;;;;;;15.21;55.98;101249.08;107004;1254;61510;-81
2022/09/25 08:50:28;;;;;;;10.00;7.10;;;;;;;15.65;56.93;101253.09;107297;1254;70958;-81
2022/09/25 08:53:19;;;;;;;8.30;6.10;;;;;;;15.75;53.84;101250.73;107388;1252;67976;-88
2022/09/25 08:58:55;;;;;;;9.10;5.60;;;;;;;16.03;53.32;101248.42;107223;1252;59555;-87
2022/09/25 09:01:41;;;;;;;;;;;;;;;16.10;52.80;101245.88;107082;1254;60006;-84
2022/09/25 09:04:31;;;;;;;6.80;5.00;;;;;;;16.26;53.69;101238.50;107233;1252;71718;-84
2022/09/25 09:07:31;;;;;;;5.90;3.70;;;;;;;16.38;51.00;101237.30;106812;1253;384018;-85
2022/09/25 09:10:25;;;;;;;4.40;3.50;;;;;;;16.30;49.12;101233.95;107228;1252;70024;-81
2022/09/25 09:13:22;;;;;;;6.20;4.20;;;;;;;16.55;49.98;101227.29;106980;1254;73350;-84
2022/09/25 09:16:05;;;;;;;5.30;4.00;;;;;;;16.67;49.24;101214.62;107164;1252;61101;-80
2022/09/25 09:18:40;;;;;;;;;;;;;;;16.79;50.59;101212.42;107581;1253;59531;-91
2022/09/25 09:21:27;;;;;;;6.50;4.10;;;;;;;16.92;49.99;101213.78;107352;1255;72429;-85
2022/09/25 09:24:06;;;;;;;7.10;4.00;;;;;;;17.10;48.95;101209.89;107096;1252;73261;-85
2022/09/25 09:27:23;;;;;;;6.00;4.40;;;;;;;17.26;48.69;101204.39;107101;1254;60111;-89
2022/09/25 09:30:43;;;;;;;5.60;3.60;;;;;;;17.48;48.48;101181.89;107207;1252;72889;-89
2022/09/25 09:33:37;;;;;;;8.60;3.90;;;;;;;17.94;44.68;101196.19;107100;1254;59907;-82
2022/09/25 09:36:26;;;;;;;4.80;3.00;;;;;;;18.04;43.69;101188.73;107261;1252;57873;-82
2022/09/25 09:39:25;;;;;;;6.10;3.60;;;;;;;18.12;43.45;101189.48;107026;1254;63872;-86
2022/09/25 09:42:44;;;;;;;3.90;3.10;;;;;;;18.20;43.91;101187.13;107215;1254;62355;-81
2022/09/25 09:46:06;;;;;;;10.70;4.00;;;;;;;18.45;43.13;101181.54;106745;1253;70031;-81
2022/09/25 09:49:11;;;;;;;6.40;2.80;;;;;;;18.73;41.11;101176.34;106556;1260;64325;-84
2022/09/25 09:51:54;;;;;;;5.80;3.10;;;;;;;18.72;40.55;101168.83;106598;1259;57942;-83
2022/09/25 09:54:47;;;;;;;4.10;2.90;;;;;;;18.72;40.58;101168.45;107048;1254;59685;-83
2022/09/25 09:57:31;;;;;;;4.60;3.00;;;;;;;18.80;41.19;101172.14;106868;1254;73769;-86
2022/09/25 10:00:16;;;;;;;6.40;3.20;;;;;;;18.85;40.15;101176.55;107113;1252;71769;-85
2022/09/25 10:02:59;;;;;;;5.60;3.00;;;;;;;18.98;40.21;101171.67;106981;1254;60954;-83
2022/09/25 10:05:38;;;;;;;5.00;2.60;;;;;;;18.99;40.27;101166.29;107084;1254;63327;-83
2022/09/25 10:08:10;;;;;;;3.30;2.30;;;;;;;19.09;38.88;101162.52;107082;1252;59697;-86
2022/09/25 10:10:46;;;;;;;4.30;2.70;;;;;;;19.01;39.12;101157.16;107176;1254;59708;-89
2022/09/25 10:13:35;;;;;;;3.60;2.70;;;;;;;18.99;39.82;101147.59;107016;1254;63110;-82
2022/09/25 10:16:16;;;;;;;7.40;2.50;;;;;;;19.09;39.08;101137.46;107297;1253;61302;-89
2022/09/25 10:19:18;;;;;;;3.80;2.50;;;;;;;19.21;38.58;101130.17;107199;1252;70695;-90
2022/09/25 10:21:59;;;;;;;4.50;3.10;;;;;;;19.17;39.05;101134.06;107147;1254;62421;-78
2022/09/25 10:25:00;;;;;;;3.40;2.30;;;;;;;19.27;39.19;101132.39;107091;1252;59624;-81
2022/09/25 10:27:39;;;;;;;3.70;2.50;;;;;;;19.41;40.40;101128.36;107079;1253;59684;-83
2022/09/25 10:30:08;;;;;;;4.60;2.30;;;;;;;19.67;40.72;101123.86;106990;1252;72728;-81
2022/09/25 10:32:56;;;;;;;4.60;2.60;;;;;;;19.80;38.17;101125.87;107172;1252;72761;-79
2022/09/25 10:35:37;;;;;;;4.00;2.30;;;;;;;19.97;38.24;101124.41;107199;1252;61746;-73
2022/09/25 10:38:47;;;;;;;5.60;2.50;;;;;;;20.16;38.58;101120.98;107076;1252;64080;-75
2022/09/25 10:41:19;;;;;;;3.90;2.30;;;;;;;20.47;37.42;101111.66;106882;1251;61839;-86
2022/09/25 10:43:59;;;;;;;3.20;2.10;;;;;;;20.51;37.18;101100.91;107125;1253;59836;-75
2022/09/25 10:52:18;;;;;;;4.20;2.50;;;;;;;21.43;35.93;101107.50;107293;1252;60041;-87
2022/09/25 10:54:47;;;;;;;6.30;2.40;;;;;;;21.58;34.62;101104.23;107196;1254;62596;-82
2022/09/25 10:57:36;;;;;;;3.40;2.60;;;;;;;21.50;35.14;101099.32;107354;1252;61367;-86
2022/09/25 11:00:24;;;;;;;4.10;2.20;;;;;;;21.57;35.39;101096.48;107966;1252;61572;-80
2022/09/25 11:03:01;;;;;;;4.00;2.60;;;;;;;21.86;34.35;101094.48;107243;1252;64280;-82
2022/09/25 11:05:36;;;;;;;3.20;2.40;;;;;;;22.17;32.45;101090.12;107212;1252;60920;-84
2022/09/25 11:08:08;;;;;;;6.80;4.80;;;;;;;22.41;32.68;101095.36;107032;1255;60502;-82
2022/09/25 11:10:55;;;;;;;9.10;5.50;;;;;;;22.56;33.02;101104.94;107457;1253;74057;-86
2022/09/25 11:13:35;;;;;;;4.60;2.70;;;;;;;23.16;30.84;101103.85;108051;1253;58238;-84
2022/09/25 11:16:10;;;;;;;3.20;2.50;;;;;;;23.33;29.85;101106.69;107891;1253;57916;-88
2022/09/25 11:18:50;;;;;;;3.30;2.20;;;;;;;22.95;30.79;101105.84;107429;1254;63874;-87
2022/09/25 11:21:37;;;;;;;3.00;2.20;;;;;;;22.95;30.68;101103.20;107293;1253;60998;-85
2022/09/25 11:24:24;;;;;;;2.50;2.00;;;;;;;22.12;30.55;101093.63;107036;1254;59826;-87
2022/09/25 11:27:30;;;;;;;2.90;2.00;;;;;;;21.95;30.65;101093.02;106865;1254;73995;-84
2022/09/25 11:30:09;;;;;;;3.90;2.00;;;;;;;23.34;30.67;101095.02;106720;1254;61190;-83
2022/09/25 11:33:43;;;;;;;3.70;2.20;;;;;;;24.04;28.64;101092.36;106928;1252;59715;-87
2022/09/25 11:36:24;;;;;;;2.50;1.90;;;;;;;24.04;29.18;101089.30;106255;1260;63180;-86
2022/09/25 11:42:01;;;;;;;3.50;2.00;;;;;;;23.99;28.55;101085.54;107038;1254;69755;-78
2022/09/25 11:44:58;;;;;;;3.80;1.80;;;;;;;24.55;29.54;101087.23;106964;1252;74354;-78
2022/09/25 11:48:21;;;;;;;5.90;2.30;;;;;;;24.34;27.94;101088.01;107019;1252;60890;-79
2022/09/25 11:51:11;;;;;;;;;;;;;;;24.17;27.66;101086.33;107064;1254;59562;-81
2022/09/25 11:54:15;;;;;;;3.00;2.10;;;;;;;23.47;28.46;101084.54;107085;1254;64378;-78
2022/09/25 11:58:01;;;;;;;3.20;1.90;;;;;;;23.40;28.56;101079.49;107008;1253;60872;-82
2022/09/25 12:00:48;;;;;;;3.40;2.00;;;;;;;24.02;28.28;101070.84;107048;1252;59332;-79
2022/09/25 12:03:42;;;;;;;3.50;2.10;;;;;;;24.51;28.12;101065.79;107062;1252;63638;-80
2022/09/25 12:06:43;;;;;;;2.80;1.80;;;;;;;25.01;26.79;101065.31;107144;1252;60525;-82
2022/09/25 12:09:41;;;;;;;5.00;1.90;;;;;;;24.80;27.53;101061.43;107125;1252;59470;-82
2022/09/25 12:12:31;;;;;;;2.10;1.60;;;;;;;25.27;25.56;101058.86;107001;1254;73654;-81
2022/09/25 12:15:24;;;;;;;2.90;1.90;;;;;;;23.72;27.98;101059.08;106925;1252;72175;-82
2022/09/25 12:18:32;;;;;;;3.20;1.90;;;;;;;24.28;26.96;101053.55;107018;1254;71380;-85
2022/09/25 12:21:14;;;;;;;2.60;1.80;;;;;;;24.60;26.57;101045.70;107160;1254;74427;-80
2022/09/25 12:23:57;;;;;;;4.50;2.10;;;;;;;24.04;27.03;101035.72;107158;1252;61897;-81